sensor_id;sensor_type;location;lat;lon;timestamp;P1;durP1;ratioP1;P2;durP2;ratioP2
7375;SDS011;3728;42.266;24.944;2023-07-08T00:00:54;6.75;;;6.15;;
7375;SDS011;3728;42.266;24.944;2023-07-08T00:03:21;9.55;;;6.72;;
7375;SDS011;3728;42.266;24.944;2023-07-08T00:05:50;7.97;;;6.47;;
7375;SDS011;3728;42.266;24.944;2023-07-08T00:08:22;10.95;;;6.78;;
7375;SDS011;3728;42.266;24.944;2023-07-08T00:10:50;8.07;;;6.80;;
7375;SDS011;3728;42.266;24.944;2023-07-08T00:13:19;9.75;;;6.75;;
7375;SDS011;3728;42.266;24.944;2023-07-08T00:15:46;7.60;;;6.03;;
7375;SDS011;3728;42.266;24.944;2023-07-08T00:18:15;7.00;;;6.30;;
7375;SDS011;3728;42.266;24.944;2023-07-08T00:20:46;7.68;;;6.80;;
7375;SDS011;3728;42.266;24.944;2023-07-08T00:23:16;7.38;;;6.68;;
7375;SDS011;3728;42.266;24.944;2023-07-08T00:25:48;7.18;;;6.45;;
7375;SDS011;3728;42.266;24.944;2023-07-08T00:28:17;6.95;;;6.25;;
7375;SDS011;3728;42.266;24.944;2023-07-08T00:30:47;10.43;;;7.22;;
7375;SDS011;3728;42.266;24.944;2023-07-08T00:33:16;9.60;;;6.93;;
7375;SDS011;3728;42.266;24.944;2023-07-08T00:35:44;8.23;;;6.32;;
7375;SDS011;3728;42.266;24.944;2023-07-08T00:38:19;6.72;;;6.03;;
7375;SDS011;3728;42.266;24.944;2023-07-08T00:41:04;7.30;;;6.40;;
7375;SDS011;3728;42.266;24.944;2023-07-08T00:43:52;6.95;;;5.80;;
7375;SDS011;3728;42.266;24.944;2023-07-08T00:51:42;8.93;;;6.03;;
7375;SDS011;3728;42.266;24.944;2023-07-08T00:54:13;6.43;;;5.82;;
7375;SDS011;3728;42.266;24.944;2023-07-08T00:56:59;7.22;;;5.03;;
7375;SDS011;3728;42.266;24.944;2023-07-08T00:59:30;6.43;;;5.82;;
7375;SDS011;3728;42.266;24.944;2023-07-08T01:02:26;8.50;;;5.78;;
7375;SDS011;3728;42.266;24.944;2023-07-08T01:07:32;7.55;;;4.90;;
7375;SDS011;3728;42.266;24.944;2023-07-08T01:10:03;7.28;;;5.18;;
7375;SDS011;3728;42.266;24.944;2023-07-08T01:12:41;5.60;;;5.00;;
7375;SDS011;3728;42.266;24.944;2023-07-08T01:15:14;7.10;;;5.50;;
7375;SDS011;3728;42.266;24.944;2023-07-08T01:17:43;6.28;;;5.47;;
7375;SDS011;3728;42.266;24.944;2023-07-08T01:20:12;8.27;;;5.85;;
7375;SDS011;3728;42.266;24.944;2023-07-08T01:22:41;6.25;;;5.65;;
7375;SDS011;3728;42.266;24.944;2023-07-08T01:25:09;8.20;;;5.65;;
7375;SDS011;3728;42.266;24.944;2023-07-08T01:27:43;8.85;;;5.85;;
7375;SDS011;3728;42.266;24.944;2023-07-08T01:30:16;5.75;;;5.20;;
7375;SDS011;3728;42.266;24.944;2023-07-08T01:32:45;7.07;;;4.95;;
7375;SDS011;3728;42.266;24.944;2023-07-08T01:35:18;8.00;;;5.40;;
7375;SDS011;3728;42.266;24.944;2023-07-08T01:37:48;5.93;;;5.22;;
7375;SDS011;3728;42.266;24.944;2023-07-08T01:40:27;7.60;;;4.90;;
7375;SDS011;3728;42.266;24.944;2023-07-08T01:42:59;9.88;;;5.40;;
7375;SDS011;3728;42.266;24.944;2023-07-08T01:45:31;9.05;;;5.65;;
7375;SDS011;3728;42.266;24.944;2023-07-08T01:48:04;6.57;;;4.90;;
7375;SDS011;3728;42.266;24.944;2023-07-08T01:50:37;7.30;;;5.57;;
7375;SDS011;3728;42.266;24.944;2023-07-08T01:53:14;12.73;;;5.43;;
7375;SDS011;3728;42.266;24.944;2023-07-08T01:55:48;6.63;;;5.07;;
7375;SDS011;3728;42.266;24.944;2023-07-08T01:58:17;6.10;;;5.50;;
7375;SDS011;3728;42.266;24.944;2023-07-08T02:00:44;7.15;;;4.95;;
7375;SDS011;3728;42.266;24.944;2023-07-08T02:03:15;7.80;;;5.30;;
7375;SDS011;3728;42.266;24.944;2023-07-08T02:05:43;12.77;;;5.72;;
7375;SDS011;3728;42.266;24.944;2023-07-08T02:08:10;8.52;;;5.28;;
7375;SDS011;3728;42.266;24.944;2023-07-08T02:10:38;7.18;;;4.95;;
7375;SDS011;3728;42.266;24.944;2023-07-08T02:13:08;10.05;;;5.50;;
7375;SDS011;3728;42.266;24.944;2023-07-08T02:15:36;6.63;;;5.93;;
7375;SDS011;3728;42.266;24.944;2023-07-08T02:18:03;6.35;;;5.22;;
7375;SDS011;3728;42.266;24.944;2023-07-08T02:20:31;8.68;;;5.55;;
7375;SDS011;3728;42.266;24.944;2023-07-08T02:22:59;7.25;;;5.57;;
7375;SDS011;3728;42.266;24.944;2023-07-08T02:25:26;7.97;;;5.67;;
7375;SDS011;3728;42.266;24.944;2023-07-08T02:27:55;7.00;;;5.65;;
7375;SDS011;3728;42.266;24.944;2023-07-08T02:30:23;8.80;;;5.55;;
7375;SDS011;3728;42.266;24.944;2023-07-08T02:32:51;8.85;;;5.70;;
7375;SDS011;3728;42.266;24.944;2023-07-08T02:35:27;8.93;;;5.82;;
7375;SDS011;3728;42.266;24.944;2023-07-08T02:37:56;10.82;;;6.30;;
7375;SDS011;3728;42.266;24.944;2023-07-08T02:40:25;7.07;;;6.15;;
7375;SDS011;3728;42.266;24.944;2023-07-08T02:42:53;8.07;;;6.20;;
7375;SDS011;3728;42.266;24.944;2023-07-08T02:45:20;8.32;;;6.38;;
7375;SDS011;3728;42.266;24.944;2023-07-08T02:47:48;7.63;;;6.32;;
7375;SDS011;3728;42.266;24.944;2023-07-08T02:50:16;8.05;;;6.40;;
7375;SDS011;3728;42.266;24.944;2023-07-08T02:52:45;9.73;;;6.30;;
7375;SDS011;3728;42.266;24.944;2023-07-08T02:55:12;7.05;;;6.30;;
7375;SDS011;3728;42.266;24.944;2023-07-08T02:57:40;7.85;;;6.40;;
7375;SDS011;3728;42.266;24.944;2023-07-08T03:00:08;7.15;;;6.45;;
7375;SDS011;3728;42.266;24.944;2023-07-08T03:02:36;9.30;;;7.10;;
7375;SDS011;3728;42.266;24.944;2023-07-08T03:05:04;9.70;;;6.53;;
7375;SDS011;3728;42.266;24.944;2023-07-08T03:07:33;11.98;;;7.10;;
7375;SDS011;3728;42.266;24.944;2023-07-08T03:10:00;12.60;;;7.60;;
7375;SDS011;3728;42.266;24.944;2023-07-08T03:12:28;9.05;;;7.20;;
7375;SDS011;3728;42.266;24.944;2023-07-08T03:14:55;9.00;;;7.50;;
7375;SDS011;3728;42.266;24.944;2023-07-08T03:17:23;9.32;;;7.03;;
7375;SDS011;3728;42.266;24.944;2023-07-08T03:19:51;11.05;;;7.70;;
7375;SDS011;3728;42.266;24.944;2023-07-08T03:22:19;8.40;;;7.50;;
7375;SDS011;3728;42.266;24.944;2023-07-08T03:24:46;8.20;;;7.38;;
7375;SDS011;3728;42.266;24.944;2023-07-08T03:27:17;8.63;;;7.50;;
7375;SDS011;3728;42.266;24.944;2023-07-08T03:29:48;9.15;;;7.80;;
7375;SDS011;3728;42.266;24.944;2023-07-08T03:32:17;11.18;;;7.95;;
7375;SDS011;3728;42.266;24.944;2023-07-08T03:34:45;14.68;;;7.90;;
7375;SDS011;3728;42.266;24.944;2023-07-08T03:37:12;8.27;;;7.57;;
7375;SDS011;3728;42.266;24.944;2023-07-08T03:39:40;9.02;;;7.22;;
7375;SDS011;3728;42.266;24.944;2023-07-08T03:42:08;8.00;;;7.20;;
7375;SDS011;3728;42.266;24.944;2023-07-08T03:44:36;9.70;;;8.30;;
7375;SDS011;3728;42.266;24.944;2023-07-08T03:47:04;8.75;;;7.82;;
7375;SDS011;3728;42.266;24.944;2023-07-08T03:49:31;8.82;;;7.93;;
7375;SDS011;3728;42.266;24.944;2023-07-08T03:51:59;8.75;;;7.85;;
7375;SDS011;3728;42.266;24.944;2023-07-08T03:54:27;9.80;;;7.55;;
7375;SDS011;3728;42.266;24.944;2023-07-08T03:56:56;11.10;;;8.05;;
7375;SDS011;3728;42.266;24.944;2023-07-08T03:59:25;10.02;;;7.78;;
7375;SDS011;3728;42.266;24.944;2023-07-08T04:01:55;9.25;;;8.05;;
7375;SDS011;3728;42.266;24.944;2023-07-08T04:04:24;11.10;;;7.72;;
7375;SDS011;3728;42.266;24.944;2023-07-08T04:06:52;9.38;;;7.97;;
7375;SDS011;3728;42.266;24.944;2023-07-08T04:09:21;12.07;;;7.95;;
7375;SDS011;3728;42.266;24.944;2023-07-08T04:11:48;8.68;;;7.68;;
7375;SDS011;3728;42.266;24.944;2023-07-08T04:14:16;8.60;;;7.80;;
7375;SDS011;3728;42.266;24.944;2023-07-08T04:16:45;9.23;;;8.27;;
7375;SDS011;3728;42.266;24.944;2023-07-08T04:19:21;13.13;;;8.25;;
7375;SDS011;3728;42.266;24.944;2023-07-08T04:21:49;9.55;;;8.27;;
7375;SDS011;3728;42.266;24.944;2023-07-08T04:24:20;13.52;;;7.95;;
7375;SDS011;3728;42.266;24.944;2023-07-08T04:26:47;13.05;;;9.00;;
7375;SDS011;3728;42.266;24.944;2023-07-08T04:29:17;13.75;;;8.35;;
7375;SDS011;3728;42.266;24.944;2023-07-08T04:31:47;13.60;;;8.57;;
7375;SDS011;3728;42.266;24.944;2023-07-08T04:34:16;11.18;;;8.30;;
7375;SDS011;3728;42.266;24.944;2023-07-08T04:36:44;10.18;;;7.93;;
7375;SDS011;3728;42.266;24.944;2023-07-08T04:39:12;11.15;;;8.50;;
7375;SDS011;3728;42.266;24.944;2023-07-08T04:41:40;9.00;;;8.10;;
7375;SDS011;3728;42.266;24.944;2023-07-08T04:44:10;9.90;;;8.10;;
7375;SDS011;3728;42.266;24.944;2023-07-08T04:49:23;10.23;;;9.13;;
7375;SDS011;3728;42.266;24.944;2023-07-08T04:51:58;9.82;;;7.93;;
7375;SDS011;3728;42.266;24.944;2023-07-08T04:54:29;8.85;;;7.95;;
7375;SDS011;3728;42.266;24.944;2023-07-08T04:56:56;10.15;;;8.70;;
7375;SDS011;3728;42.266;24.944;2023-07-08T04:59:25;11.10;;;8.50;;
7375;SDS011;3728;42.266;24.944;2023-07-08T05:01:53;9.32;;;7.88;;
7375;SDS011;3728;42.266;24.944;2023-07-08T05:04:21;9.88;;;7.75;;
7375;SDS011;3728;42.266;24.944;2023-07-08T05:06:49;11.60;;;8.02;;
7375;SDS011;3728;42.266;24.944;2023-07-08T05:09:17;9.02;;;7.43;;
7375;SDS011;3728;42.266;24.944;2023-07-08T05:11:45;9.27;;;7.70;;
7375;SDS011;3728;42.266;24.944;2023-07-08T05:14:12;10.45;;;7.47;;
7375;SDS011;3728;42.266;24.944;2023-07-08T05:16:40;11.80;;;7.93;;
7375;SDS011;3728;42.266;24.944;2023-07-08T05:19:08;11.65;;;7.25;;
7375;SDS011;3728;42.266;24.944;2023-07-08T05:21:37;9.98;;;7.10;;
7375;SDS011;3728;42.266;24.944;2023-07-08T05:24:05;12.25;;;7.50;;
7375;SDS011;3728;42.266;24.944;2023-07-08T05:26:33;8.48;;;7.30;;
7375;SDS011;3728;42.266;24.944;2023-07-08T05:29:01;8.00;;;7.20;;
7375;SDS011;3728;42.266;24.944;2023-07-08T05:31:28;9.15;;;6.78;;
7375;SDS011;3728;42.266;24.944;2023-07-08T05:34:13;8.50;;;6.93;;
7375;SDS011;3728;42.266;24.944;2023-07-08T05:36:42;9.82;;;6.30;;
7375;SDS011;3728;42.266;24.944;2023-07-08T05:39:10;9.95;;;6.53;;
7375;SDS011;3728;42.266;24.944;2023-07-08T05:41:38;8.02;;;6.82;;
7375;SDS011;3728;42.266;24.944;2023-07-08T05:44:06;7.95;;;7.25;;
7375;SDS011;3728;42.266;24.944;2023-07-08T05:46:34;10.57;;;7.30;;
7375;SDS011;3728;42.266;24.944;2023-07-08T05:49:02;10.20;;;7.63;;
7375;SDS011;3728;42.266;24.944;2023-07-08T05:51:29;13.05;;;7.75;;
7375;SDS011;3728;42.266;24.944;2023-07-08T05:53:57;16.15;;;8.93;;
7375;SDS011;3728;42.266;24.944;2023-07-08T05:56:24;10.73;;;7.57;;
7375;SDS011;3728;42.266;24.944;2023-07-08T05:58:52;9.05;;;7.05;;
7375;SDS011;3728;42.266;24.944;2023-07-08T06:01:20;9.02;;;7.07;;
7375;SDS011;3728;42.266;24.944;2023-07-08T06:03:48;9.15;;;7.10;;
7375;SDS011;3728;42.266;24.944;2023-07-08T06:06:16;9.40;;;7.35;;
7375;SDS011;3728;42.266;24.944;2023-07-08T06:08:44;8.68;;;7.07;;
7375;SDS011;3728;42.266;24.944;2023-07-08T06:11:12;10.80;;;6.60;;
7375;SDS011;3728;42.266;24.944;2023-07-08T06:13:40;12.65;;;7.03;;
7375;SDS011;3728;42.266;24.944;2023-07-08T06:16:07;7.47;;;6.60;;
7375;SDS011;3728;42.266;24.944;2023-07-08T06:18:35;12.25;;;6.97;;
7375;SDS011;3728;42.266;24.944;2023-07-08T06:21:05;7.60;;;5.95;;
7375;SDS011;3728;42.266;24.944;2023-07-08T06:23:33;8.38;;;6.55;;
7375;SDS011;3728;42.266;24.944;2023-07-08T06:26:00;10.52;;;6.88;;
7375;SDS011;3728;42.266;24.944;2023-07-08T06:28:28;11.02;;;6.57;;
7375;SDS011;3728;42.266;24.944;2023-07-08T06:30:55;7.68;;;6.38;;
7375;SDS011;3728;42.266;24.944;2023-07-08T06:33:24;6.40;;;5.82;;
7375;SDS011;3728;42.266;24.944;2023-07-08T06:35:51;8.15;;;6.25;;
7375;SDS011;3728;42.266;24.944;2023-07-08T06:38:19;8.77;;;6.70;;
7375;SDS011;3728;42.266;24.944;2023-07-08T06:40:46;9.73;;;5.70;;
7375;SDS011;3728;42.266;24.944;2023-07-08T06:43:15;5.68;;;5.15;;
7375;SDS011;3728;42.266;24.944;2023-07-08T06:45:48;7.15;;;5.20;;
7375;SDS011;3728;42.266;24.944;2023-07-08T06:48:16;6.55;;;5.10;;
7375;SDS011;3728;42.266;24.944;2023-07-08T06:50:46;7.10;;;5.13;;
7375;SDS011;3728;42.266;24.944;2023-07-08T06:53:15;9.90;;;5.38;;
7375;SDS011;3728;42.266;24.944;2023-07-08T06:55:46;6.75;;;5.00;;
7375;SDS011;3728;42.266;24.944;2023-07-08T06:58:14;6.63;;;5.10;;
7375;SDS011;3728;42.266;24.944;2023-07-08T07:00:42;9.65;;;4.90;;
7375;SDS011;3728;42.266;24.944;2023-07-08T07:03:11;7.43;;;4.60;;
7375;SDS011;3728;42.266;24.944;2023-07-08T07:05:39;4.95;;;4.53;;
7375;SDS011;3728;42.266;24.944;2023-07-08T07:08:07;7.65;;;5.88;;
7375;SDS011;3728;42.266;24.944;2023-07-08T07:10:35;9.48;;;5.38;;
7375;SDS011;3728;42.266;24.944;2023-07-08T07:13:03;6.88;;;4.65;;
7375;SDS011;3728;42.266;24.944;2023-07-08T07:15:31;5.30;;;4.63;;
7375;SDS011;3728;42.266;24.944;2023-07-08T07:17:59;7.47;;;4.20;;
7375;SDS011;3728;42.266;24.944;2023-07-08T07:20:27;5.32;;;4.00;;
7375;SDS011;3728;42.266;24.944;2023-07-08T07:22:55;7.30;;;4.45;;
7375;SDS011;3728;42.266;24.944;2023-07-08T07:25:24;4.35;;;3.95;;
7375;SDS011;3728;42.266;24.944;2023-07-08T07:27:52;5.22;;;3.90;;
7375;SDS011;3728;42.266;24.944;2023-07-08T07:30:19;8.38;;;3.97;;
7375;SDS011;3728;42.266;24.944;2023-07-08T07:32:47;4.70;;;3.75;;
7375;SDS011;3728;42.266;24.944;2023-07-08T07:35:15;5.10;;;3.70;;
7375;SDS011;3728;42.266;24.944;2023-07-08T07:37:43;4.90;;;4.15;;
7375;SDS011;3728;42.266;24.944;2023-07-08T07:40:12;5.78;;;4.22;;
7375;SDS011;3728;42.266;24.944;2023-07-08T07:42:43;4.43;;;3.97;;
7375;SDS011;3728;42.266;24.944;2023-07-08T07:45:13;6.72;;;3.95;;
7375;SDS011;3728;42.266;24.944;2023-07-08T07:47:41;5.28;;;3.88;;
7375;SDS011;3728;42.266;24.944;2023-07-08T07:50:09;5.78;;;3.85;;
7375;SDS011;3728;42.266;24.944;2023-07-08T07:52:37;5.60;;;3.97;;
7375;SDS011;3728;42.266;24.944;2023-07-08T07:55:09;5.63;;;4.00;;
7375;SDS011;3728;42.266;24.944;2023-07-08T07:57:36;4.22;;;3.83;;
7375;SDS011;3728;42.266;24.944;2023-07-08T08:00:04;5.93;;;4.18;;
7375;SDS011;3728;42.266;24.944;2023-07-08T08:02:38;6.30;;;3.72;;
7375;SDS011;3728;42.266;24.944;2023-07-08T08:05:07;5.85;;;3.53;;
7375;SDS011;3728;42.266;24.944;2023-07-08T08:07:35;6.78;;;3.88;;
7375;SDS011;3728;42.266;24.944;2023-07-08T08:10:04;6.25;;;3.90;;
7375;SDS011;3728;42.266;24.944;2023-07-08T08:12:32;3.35;;;3.05;;
7375;SDS011;3728;42.266;24.944;2023-07-08T08:15:17;3.65;;;3.35;;
7375;SDS011;3728;42.266;24.944;2023-07-08T08:17:45;5.05;;;3.22;;
7375;SDS011;3728;42.266;24.944;2023-07-08T08:20:15;5.15;;;3.45;;
7375;SDS011;3728;42.266;24.944;2023-07-08T08:22:44;5.30;;;3.72;;
7375;SDS011;3728;42.266;24.944;2023-07-08T08:25:12;4.75;;;3.72;;
7375;SDS011;3728;42.266;24.944;2023-07-08T08:27:41;5.32;;;4.20;;
7375;SDS011;3728;42.266;24.944;2023-07-08T08:30:10;6.65;;;5.90;;
7375;SDS011;3728;42.266;24.944;2023-07-08T08:32:39;5.18;;;3.53;;
7375;SDS011;3728;42.266;24.944;2023-07-08T08:35:07;7.05;;;3.35;;
7375;SDS011;3728;42.266;24.944;2023-07-08T08:37:35;20.23;;;18.13;;
7375;SDS011;3728;42.266;24.944;2023-07-08T08:40:03;5.03;;;3.50;;
7375;SDS011;3728;42.266;24.944;2023-07-08T08:42:39;9.02;;;7.57;;
7375;SDS011;3728;42.266;24.944;2023-07-08T08:45:11;11.73;;;10.60;;
7375;SDS011;3728;42.266;24.944;2023-07-08T08:47:51;3.90;;;3.60;;
7375;SDS011;3728;42.266;24.944;2023-07-08T08:53:30;7.47;;;3.63;;
7375;SDS011;3728;42.266;24.944;2023-07-08T08:56:00;5.90;;;3.50;;
7375;SDS011;3728;42.266;24.944;2023-07-08T08:58:42;3.50;;;3.13;;
7375;SDS011;3728;42.266;24.944;2023-07-08T09:01:27;4.63;;;3.03;;
7375;SDS011;3728;42.266;24.944;2023-07-08T09:03:57;12.05;;;4.00;;
7375;SDS011;3728;42.266;24.944;2023-07-08T09:06:31;5.30;;;3.40;;
7375;SDS011;3728;42.266;24.944;2023-07-08T09:09:02;6.15;;;3.28;;
7375;SDS011;3728;42.266;24.944;2023-07-08T09:11:57;4.85;;;2.85;;
7375;SDS011;3728;42.266;24.944;2023-07-08T09:14:34;6.68;;;3.22;;
7375;SDS011;3728;42.266;24.944;2023-07-08T09:20:25;3.65;;;2.92;;
7375;SDS011;3728;42.266;24.944;2023-07-08T09:23:10;4.65;;;2.65;;
7375;SDS011;3728;42.266;24.944;2023-07-08T09:25:54;2.80;;;2.53;;
7375;SDS011;3728;42.266;24.944;2023-07-08T09:28:35;5.20;;;2.80;;
7375;SDS011;3728;42.266;24.944;2023-07-08T09:31:12;5.97;;;2.55;;
7375;SDS011;3728;42.266;24.944;2023-07-08T09:34:08;7.40;;;5.57;;
7375;SDS011;3728;42.266;24.944;2023-07-08T09:36:42;2.88;;;2.45;;
7375;SDS011;3728;42.266;24.944;2023-07-08T09:39:15;10.10;;;2.80;;
7375;SDS011;3728;42.266;24.944;2023-07-08T09:41:48;5.00;;;2.83;;
7375;SDS011;3728;42.266;24.944;2023-07-08T09:46:56;3.97;;;2.30;;
7375;SDS011;3728;42.266;24.944;2023-07-08T09:52:02;4.57;;;1.95;;
7375;SDS011;3728;42.266;24.944;2023-07-08T09:54:31;2.95;;;2.20;;
7375;SDS011;3728;42.266;24.944;2023-07-08T09:57:05;2.40;;;2.20;;
7375;SDS011;3728;42.266;24.944;2023-07-08T10:00:06;6.30;;;2.20;;
7375;SDS011;3728;42.266;24.944;2023-07-08T10:02:49;7.50;;;2.38;;
7375;SDS011;3728;42.266;24.944;2023-07-08T10:05:36;6.78;;;2.33;;
7375;SDS011;3728;42.266;24.944;2023-07-08T10:08:18;5.18;;;2.40;;
7375;SDS011;3728;42.266;24.944;2023-07-08T10:10:54;4.22;;;2.13;;
7375;SDS011;3728;42.266;24.944;2023-07-08T10:13:40;2.13;;;2.00;;
7375;SDS011;3728;42.266;24.944;2023-07-08T10:16:35;6.25;;;2.45;;
7375;SDS011;3728;42.266;24.944;2023-07-08T10:19:11;8.63;;;2.03;;
7375;SDS011;3728;42.266;24.944;2023-07-08T10:58:23;2.08;;;1.83;;
7375;SDS011;3728;42.266;24.944;2023-07-08T11:01:01;3.35;;;2.20;;
7375;SDS011;3728;42.266;24.944;2023-07-08T11:04:06;2.10;;;2.00;;
7375;SDS011;3728;42.266;24.944;2023-07-08T11:06:55;5.35;;;1.90;;
7375;SDS011;3728;42.266;24.944;2023-07-08T11:09:35;2.22;;;1.70;;
7375;SDS011;3728;42.266;24.944;2023-07-08T11:15:06;2.65;;;2.35;;
7375;SDS011;3728;42.266;24.944;2023-07-08T11:17:55;3.08;;;2.28;;
7375;SDS011;3728;42.266;24.944;2023-07-08T11:21:05;6.15;;;2.28;;
7375;SDS011;3728;42.266;24.944;2023-07-08T11:27:13;3.10;;;2.10;;
7375;SDS011;3728;42.266;24.944;2023-07-08T11:29:53;3.75;;;2.00;;
7375;SDS011;3728;42.266;24.944;2023-07-08T11:32:26;2.05;;;1.95;;
7375;SDS011;3728;42.266;24.944;2023-07-08T11:35:00;3.05;;;1.80;;
7375;SDS011;3728;42.266;24.944;2023-07-08T11:37:32;2.58;;;1.80;;
7375;SDS011;3728;42.266;24.944;2023-07-08T11:42:43;2.80;;;2.17;;
7375;SDS011;3728;42.266;24.944;2023-07-08T11:45:38;2.10;;;2.00;;
7375;SDS011;3728;42.266;24.944;2023-07-08T11:48:17;2.15;;;2.00;;
7375;SDS011;3728;42.266;24.944;2023-07-08T11:50:54;1.90;;;1.70;;
7375;SDS011;3728;42.266;24.944;2023-07-08T11:58:31;2.10;;;1.95;;
7375;SDS011;3728;42.266;24.944;2023-07-08T12:01:27;3.80;;;1.98;;
7375;SDS011;3728;42.266;24.944;2023-07-08T12:04:29;2.38;;;2.08;;
7375;SDS011;3728;42.266;24.944;2023-07-08T12:07:15;2.55;;;1.80;;
7375;SDS011;3728;42.266;24.944;2023-07-08T12:09:50;3.08;;;1.95;;
7375;SDS011;3728;42.266;24.944;2023-07-08T12:12:40;4.15;;;2.05;;
7375;SDS011;3728;42.266;24.944;2023-07-08T12:18:10;11.55;;;1.95;;
7375;SDS011;3728;42.266;24.944;2023-07-08T12:20:45;4.55;;;1.90;;
7375;SDS011;3728;42.266;24.944;2023-07-08T12:23:20;2.05;;;1.85;;
7375;SDS011;3728;42.266;24.944;2023-07-08T12:25:56;3.33;;;1.98;;
7375;SDS011;3728;42.266;24.944;2023-07-08T12:28:26;2.20;;;1.90;;
7375;SDS011;3728;42.266;24.944;2023-07-08T12:30:54;5.40;;;1.92;;
7375;SDS011;3728;42.266;24.944;2023-07-08T12:36:05;2.05;;;1.60;;
7375;SDS011;3728;42.266;24.944;2023-07-08T12:38:40;2.63;;;1.77;;
7375;SDS011;3728;42.266;24.944;2023-07-08T12:41:14;2.72;;;1.52;;
7375;SDS011;3728;42.266;24.944;2023-07-08T12:43:49;6.50;;;2.10;;
7375;SDS011;3728;42.266;24.944;2023-07-08T12:46:19;2.25;;;1.90;;
7375;SDS011;3728;42.266;24.944;2023-07-08T12:48:51;3.20;;;1.55;;
7375;SDS011;3728;42.266;24.944;2023-07-08T12:51:27;3.72;;;1.85;;
7375;SDS011;3728;42.266;24.944;2023-07-08T12:53:55;2.50;;;2.13;;
7375;SDS011;3728;42.266;24.944;2023-07-08T12:56:23;1.67;;;1.58;;
7375;SDS011;3728;42.266;24.944;2023-07-08T12:58:53;2.75;;;1.75;;
7375;SDS011;3728;42.266;24.944;2023-07-08T13:01:28;2.58;;;1.75;;
7375;SDS011;3728;42.266;24.944;2023-07-08T13:04:01;13.60;;;1.75;;
7375;SDS011;3728;42.266;24.944;2023-07-08T13:06:34;11.85;;;1.90;;
7375;SDS011;3728;42.266;24.944;2023-07-08T13:09:18;4.80;;;1.20;;
7375;SDS011;3728;42.266;24.944;2023-07-08T13:12:03;4.00;;;0.93;;
7375;SDS011;3728;42.266;24.944;2023-07-08T13:14:42;1.77;;;0.73;;
7375;SDS011;3728;42.266;24.944;2023-07-08T13:17:14;3.95;;;0.98;;
7375;SDS011;3728;42.266;24.944;2023-07-08T13:19:43;3.47;;;0.90;;
7375;SDS011;3728;42.266;24.944;2023-07-08T13:22:14;2.25;;;0.80;;
7375;SDS011;3728;42.266;24.944;2023-07-08T13:25:00;4.05;;;0.60;;
7375;SDS011;3728;42.266;24.944;2023-07-08T13:28:02;3.50;;;0.90;;
7375;SDS011;3728;42.266;24.944;2023-07-08T13:32:40;1.95;;;0.90;;
7375;SDS011;3728;42.266;24.944;2023-07-08T13:35:23;1.60;;;0.93;;
7375;SDS011;3728;42.266;24.944;2023-07-08T13:37:55;3.95;;;1.33;;
7375;SDS011;3728;42.266;24.944;2023-07-08T13:40:26;2.70;;;1.67;;
7375;SDS011;3728;42.266;24.944;2023-07-08T13:42:58;4.78;;;2.28;;
7375;SDS011;3728;42.266;24.944;2023-07-08T13:45:30;5.25;;;1.77;;
7375;SDS011;3728;42.266;24.944;2023-07-08T13:48:10;3.00;;;1.80;;
7375;SDS011;3728;42.266;24.944;2023-07-08T13:51:07;8.95;;;2.72;;
7375;SDS011;3728;42.266;24.944;2023-07-08T13:53:53;7.85;;;2.38;;
7375;SDS011;3728;42.266;24.944;2023-07-08T13:56:37;1.50;;;1.40;;
7375;SDS011;3728;42.266;24.944;2023-07-08T13:59:06;2.67;;;1.77;;
7375;SDS011;3728;42.266;24.944;2023-07-08T14:01:42;1.40;;;1.30;;
7375;SDS011;3728;42.266;24.944;2023-07-08T14:04:16;1.60;;;1.50;;
7375;SDS011;3728;42.266;24.944;2023-07-08T14:06:47;2.90;;;1.52;;
7375;SDS011;3728;42.266;24.944;2023-07-08T14:09:17;2.17;;;1.50;;
7375;SDS011;3728;42.266;24.944;2023-07-08T14:11:49;2.30;;;2.10;;
7375;SDS011;3728;42.266;24.944;2023-07-08T14:14:18;5.82;;;2.88;;
7375;SDS011;3728;42.266;24.944;2023-07-08T14:16:48;2.63;;;2.33;;
7375;SDS011;3728;42.266;24.944;2023-07-08T14:19:21;3.45;;;2.45;;
7375;SDS011;3728;42.266;24.944;2023-07-08T14:21:55;3.30;;;2.75;;
7375;SDS011;3728;42.266;24.944;2023-07-08T14:24:28;2.60;;;2.30;;
7375;SDS011;3728;42.266;24.944;2023-07-08T14:26:57;4.72;;;2.53;;
7375;SDS011;3728;42.266;24.944;2023-07-08T14:29:25;3.53;;;2.92;;
7375;SDS011;3728;42.266;24.944;2023-07-08T14:31:55;3.50;;;2.88;;
7375;SDS011;3728;42.266;24.944;2023-07-08T14:34:24;2.63;;;2.42;;
7375;SDS011;3728;42.266;24.944;2023-07-08T14:36:55;2.35;;;2.15;;
7375;SDS011;3728;42.266;24.944;2023-07-08T14:39:44;2.50;;;2.30;;
7375;SDS011;3728;42.266;24.944;2023-07-08T14:42:16;3.13;;;2.83;;
7375;SDS011;3728;42.266;24.944;2023-07-08T14:44:49;2.42;;;1.80;;
7375;SDS011;3728;42.266;24.944;2023-07-08T14:47:20;2.75;;;1.75;;
7375;SDS011;3728;42.266;24.944;2023-07-08T14:50:12;2.28;;;1.40;;
7375;SDS011;3728;42.266;24.944;2023-07-08T14:52:43;3.72;;;1.90;;
7375;SDS011;3728;42.266;24.944;2023-07-08T14:55:11;2.47;;;1.60;;
7375;SDS011;3728;42.266;24.944;2023-07-08T14:57:45;1.70;;;1.60;;
7375;SDS011;3728;42.266;24.944;2023-07-08T15:00:19;2.63;;;1.70;;
7375;SDS011;3728;42.266;24.944;2023-07-08T15:03:11;4.13;;;2.13;;
7375;SDS011;3728;42.266;24.944;2023-07-08T15:05:42;2.45;;;1.80;;
7375;SDS011;3728;42.266;24.944;2023-07-08T15:08:13;3.70;;;1.88;;
7375;SDS011;3728;42.266;24.944;2023-07-08T15:11:04;2.90;;;2.17;;
7375;SDS011;3728;42.266;24.944;2023-07-08T15:13:37;5.38;;;2.28;;
7375;SDS011;3728;42.266;24.944;2023-07-08T15:16:08;4.18;;;2.20;;
7375;SDS011;3728;42.266;24.944;2023-07-08T15:18:46;4.90;;;2.95;;
7375;SDS011;3728;42.266;24.944;2023-07-08T15:21:17;2.75;;;1.90;;
7375;SDS011;3728;42.266;24.944;2023-07-08T15:23:48;1.95;;;1.80;;
7375;SDS011;3728;42.266;24.944;2023-07-08T15:26:18;1.70;;;1.60;;
7375;SDS011;3728;42.266;24.944;2023-07-08T15:28:55;9.30;;;3.13;;
7375;SDS011;3728;42.266;24.944;2023-07-08T15:31:24;4.22;;;2.95;;
7375;SDS011;3728;42.266;24.944;2023-07-08T15:33:56;6.97;;;4.53;;
7375;SDS011;3728;42.266;24.944;2023-07-08T15:36:23;3.40;;;1.95;;
7375;SDS011;3728;42.266;24.944;2023-07-08T15:38:51;9.63;;;2.28;;
7375;SDS011;3728;42.266;24.944;2023-07-08T15:41:21;3.55;;;2.30;;
7375;SDS011;3728;42.266;24.944;2023-07-08T15:43:52;6.43;;;2.10;;
7375;SDS011;3728;42.266;24.944;2023-07-08T15:46:33;7.85;;;3.35;;
7375;SDS011;3728;42.266;24.944;2023-07-08T15:49:12;3.47;;;2.20;;
7375;SDS011;3728;42.266;24.944;2023-07-08T15:51:44;3.25;;;2.22;;
7375;SDS011;3728;42.266;24.944;2023-07-08T15:54:33;5.45;;;1.85;;
7375;SDS011;3728;42.266;24.944;2023-07-08T15:57:02;2.22;;;1.80;;
7375;SDS011;3728;42.266;24.944;2023-07-08T15:59:43;4.35;;;2.30;;
7375;SDS011;3728;42.266;24.944;2023-07-08T16:02:24;2.30;;;2.08;;
7375;SDS011;3728;42.266;24.944;2023-07-08T16:04:57;4.07;;;2.10;;
7375;SDS011;3728;42.266;24.944;2023-07-08T16:07:26;3.50;;;3.20;;
7375;SDS011;3728;42.266;24.944;2023-07-08T16:09:56;3.58;;;2.50;;
7375;SDS011;3728;42.266;24.944;2023-07-08T16:12:24;3.88;;;2.38;;
7375;SDS011;3728;42.266;24.944;2023-07-08T16:14:52;3.35;;;2.40;;
7375;SDS011;3728;42.266;24.944;2023-07-08T16:17:25;5.25;;;1.98;;
7375;SDS011;3728;42.266;24.944;2023-07-08T16:19:53;4.35;;;2.30;;
7375;SDS011;3728;42.266;24.944;2023-07-08T16:22:21;5.53;;;2.33;;
7375;SDS011;3728;42.266;24.944;2023-07-08T16:24:48;3.88;;;1.85;;
7375;SDS011;3728;42.266;24.944;2023-07-08T16:27:18;3.13;;;2.80;;
7375;SDS011;3728;42.266;24.944;2023-07-08T16:29:47;2.85;;;2.55;;
7375;SDS011;3728;42.266;24.944;2023-07-08T16:32:20;6.53;;;4.32;;
7375;SDS011;3728;42.266;24.944;2023-07-08T16:34:50;7.63;;;4.03;;
7375;SDS011;3728;42.266;24.944;2023-07-08T16:37:20;7.55;;;3.67;;
7375;SDS011;3728;42.266;24.944;2023-07-08T16:39:47;3.78;;;2.67;;
7375;SDS011;3728;42.266;24.944;2023-07-08T16:42:15;4.47;;;2.95;;
7375;SDS011;3728;42.266;24.944;2023-07-08T16:44:44;3.70;;;2.30;;
7375;SDS011;3728;42.266;24.944;2023-07-08T16:47:13;4.40;;;2.03;;
7375;SDS011;3728;42.266;24.944;2023-07-08T16:49:41;4.25;;;2.95;;
7375;SDS011;3728;42.266;24.944;2023-07-08T16:52:13;2.53;;;2.20;;